createdAt,value
2023-06-24T00:00:40.913Z,99.90
2023-06-24T00:03:16.042Z,99.90
2023-06-24T00:05:52.972Z,99.90
2023-06-24T00:08:22.497Z,99.90
2023-06-24T00:10:52.825Z,99.90
2023-06-24T00:13:27.230Z,99.90
2023-06-24T00:15:59.645Z,99.90
2023-06-24T00:18:33.281Z,99.90
2023-06-24T00:21:00.536Z,99.90
2023-06-24T00:23:27.719Z,99.90
2023-06-24T00:25:55.631Z,99.90
2023-06-24T00:28:26.864Z,99.90
2023-06-24T00:31:00.436Z,99.90
2023-06-24T00:33:37.486Z,99.90
2023-06-24T00:36:04.988Z,99.90
2023-06-24T00:38:33.531Z,99.90
2023-06-24T00:41:01.264Z,99.90
2023-06-24T00:43:36.286Z,99.90
2023-06-24T00:46:04.442Z,99.90
2023-06-24T00:48:36.189Z,99.90
2023-06-24T00:51:06.215Z,99.90
2023-06-24T00:53:36.203Z,99.90
2023-06-24T00:56:04.206Z,99.90
2023-06-24T00:58:38.319Z,99.90
2023-06-24T01:01:09.632Z,99.90
2023-06-24T01:03:40.896Z,99.90
2023-06-24T01:06:19.015Z,99.90
2023-06-24T01:08:57.659Z,99.90
2023-06-24T01:11:33.770Z,99.90
2023-06-24T01:14:20.867Z,99.90
2023-06-24T01:17:06.570Z,99.90
2023-06-24T01:19:48.983Z,99.90
2023-06-24T01:22:58.595Z,99.90
2023-06-24T01:25:53.295Z,99.90
2023-06-24T01:28:50.031Z,99.90
2023-06-24T01:31:43.014Z,99.90
2023-06-24T01:34:37.213Z,99.90
2023-06-24T01:37:20.680Z,99.90
2023-06-24T01:39:51.804Z,99.90
2023-06-24T01:42:26.007Z,99.90
2023-06-24T01:44:53.777Z,99.90
2023-06-24T01:47:35.754Z,99.90
2023-06-24T01:50:04.840Z,99.90
2023-06-24T01:52:40.989Z,99.90
2023-06-24T01:55:10.730Z,99.90
2023-06-24T01:57:40.742Z,99.90
2023-06-24T02:00:18.979Z,99.90
2023-06-24T02:02:57.811Z,99.90
2023-06-24T02:05:33.069Z,99.90
2023-06-24T02:08:08.550Z,99.90
2023-06-24T02:10:46.107Z,99.90
2023-06-24T02:13:16.339Z,99.90
2023-06-24T02:15:47.293Z,99.90
2023-06-24T02:18:24.858Z,99.90
2023-06-24T02:20:57.941Z,99.90
2023-06-24T02:23:30.684Z,99.90
2023-06-24T02:26:02.628Z,99.90
2023-06-24T02:28:33.631Z,99.90
2023-06-24T02:31:00.836Z,99.90
2023-06-24T02:33:28.437Z,99.90
2023-06-24T02:35:55.517Z,99.90
2023-06-24T02:38:23.137Z,99.90
2023-06-24T02:40:50.677Z,99.90
2023-06-24T02:43:18.763Z,99.90
2023-06-24T02:45:47.593Z,99.90
2023-06-24T02:48:15.309Z,99.90
2023-06-24T02:50:45.526Z,99.90
2023-06-24T02:53:13.866Z,99.90
2023-06-24T02:55:43.317Z,99.90
2023-06-24T02:58:11.311Z,99.90
2023-06-24T03:00:39.099Z,99.90
2023-06-24T03:03:07.965Z,99.90
2023-06-24T03:05:36.741Z,99.90
2023-06-24T03:08:06.967Z,99.90
2023-06-24T03:10:33.980Z,99.90
2023-06-24T03:13:00.951Z,99.90
2023-06-24T03:15:29.482Z,99.90
2023-06-24T03:17:56.656Z,99.90
2023-06-24T03:20:25.507Z,99.90
2023-06-24T03:22:53.715Z,99.90
2023-06-24T03:25:20.634Z,99.90
2023-06-24T03:27:47.592Z,99.90
2023-06-24T03:30:16.174Z,99.90
2023-06-24T03:32:48.292Z,99.90
2023-06-24T03:35:16.724Z,99.90
2023-06-24T03:37:43.695Z,99.90
2023-06-24T03:40:11.101Z,99.90
2023-06-24T03:42:38.027Z,99.90
2023-06-24T03:45:05.574Z,99.90
2023-06-24T03:47:32.770Z,99.90
2023-06-24T03:49:59.785Z,99.90
2023-06-24T03:52:26.833Z,99.90
2023-06-24T03:54:54.689Z,99.90
2023-06-24T03:57:22.246Z,99.90
2023-06-24T03:59:49.323Z,99.90
2023-06-24T04:02:16.854Z,99.90
2023-06-24T04:04:43.801Z,99.90
2023-06-24T04:07:11.041Z,99.90
2023-06-24T04:09:37.981Z,99.90
2023-06-24T04:12:05.309Z,99.90
2023-06-24T04:14:32.486Z,99.90
2023-06-24T04:16:59.402Z,99.90
2023-06-24T04:19:26.319Z,99.90
2023-06-24T04:21:53.432Z,99.90
2023-06-24T04:24:20.424Z,99.90
2023-06-24T04:26:47.328Z,99.90
2023-06-24T04:29:14.345Z,99.90
2023-06-24T04:31:41.307Z,99.90
2023-06-24T04:34:08.324Z,99.90
2023-06-24T04:36:36.593Z,99.90
2023-06-24T04:39:03.767Z,99.90
2023-06-24T04:41:30.735Z,99.90
2023-06-24T04:43:57.735Z,99.90
2023-06-24T04:46:24.845Z,99.90
2023-06-24T04:48:51.736Z,99.90
2023-06-24T04:51:18.734Z,99.90
2023-06-24T04:53:45.671Z,99.90
2023-06-24T04:56:12.636Z,99.90
2023-06-24T04:58:39.868Z,99.90
2023-06-24T05:01:06.954Z,99.90
2023-06-24T05:03:34.044Z,99.90
2023-06-24T05:06:01.004Z,99.90
2023-06-24T05:08:27.935Z,99.90
2023-06-24T05:10:54.909Z,99.90
2023-06-24T05:13:21.835Z,99.90
2023-06-24T05:15:48.785Z,99.90
2023-06-24T05:18:15.944Z,99.90
2023-06-24T05:20:42.998Z,99.90
2023-06-24T05:23:10.170Z,99.90
2023-06-24T05:25:37.448Z,99.90
2023-06-24T05:28:04.669Z,99.90
2023-06-24T05:30:31.588Z,99.90
2023-06-24T05:32:58.523Z,99.90
2023-06-24T05:35:25.553Z,99.90
2023-06-24T05:37:52.577Z,99.90
2023-06-24T05:40:19.591Z,99.90
2023-06-24T05:42:46.565Z,99.90
2023-06-24T05:45:13.518Z,99.90
2023-06-24T05:47:40.725Z,99.90
2023-06-24T05:50:07.955Z,99.90
2023-06-24T05:52:34.863Z,99.90
2023-06-24T05:55:01.973Z,99.90
2023-06-24T05:57:28.965Z,99.90
2023-06-24T05:59:55.909Z,99.90
2023-06-24T06:02:22.952Z,99.90
2023-06-24T06:04:51.056Z,99.90
2023-06-24T06:07:18.460Z,99.90
2023-06-24T06:09:45.521Z,99.90
2023-06-24T06:12:13.131Z,99.90
2023-06-24T06:14:40.160Z,99.90
2023-06-24T06:17:07.145Z,99.90
2023-06-24T06:19:34.155Z,99.90
2023-06-24T06:22:01.182Z,99.90
2023-06-24T06:24:28.114Z,99.90
2023-06-24T06:26:55.057Z,99.90
2023-06-24T06:29:22.078Z,99.90
2023-06-24T06:31:49.021Z,99.90
2023-06-24T06:34:15.992Z,99.90
2023-06-24T06:36:42.996Z,99.90
2023-06-24T06:39:09.937Z,99.90
2023-06-24T06:41:36.866Z,99.90
2023-06-24T06:44:03.897Z,99.90
2023-06-24T06:46:30.939Z,99.90
2023-06-24T06:48:58.012Z,99.90
2023-06-24T06:51:26.300Z,99.90
2023-06-24T06:53:53.316Z,99.90
2023-06-24T06:56:27.069Z,99.90
2023-06-24T06:58:54.214Z,99.90
2023-06-24T07:01:21.763Z,99.90
2023-06-24T07:03:50.851Z,99.90
2023-06-24T07:06:20.637Z,99.90
2023-06-24T07:08:47.961Z,99.90
2023-06-24T07:11:15.027Z,99.90
2023-06-24T07:13:41.977Z,99.90
2023-06-24T07:16:09.005Z,99.90
2023-06-24T07:18:35.906Z,99.90
2023-06-24T07:21:03.259Z,99.90
2023-06-24T07:23:30.281Z,99.90
2023-06-24T07:25:57.199Z,99.90
2023-06-24T07:28:24.136Z,99.90
2023-06-24T07:30:51.525Z,99.90
2023-06-24T07:33:18.529Z,99.90
2023-06-24T07:35:45.469Z,99.90
2023-06-24T07:38:12.512Z,99.90
2023-06-24T07:40:39.630Z,99.90
2023-06-24T07:43:06.580Z,99.90
2023-06-24T07:45:33.721Z,99.90
2023-06-24T07:48:00.953Z,99.90
2023-06-24T07:50:27.937Z,99.90
2023-06-24T07:52:54.900Z,99.90
2023-06-24T07:55:21.806Z,99.90
2023-06-24T07:57:48.738Z,99.90
2023-06-24T08:00:16.667Z,99.90
2023-06-24T08:02:43.902Z,99.90
2023-06-24T08:05:11.359Z,99.90
2023-06-24T08:07:39.300Z,99.40
2023-06-24T08:10:06.956Z,98.70
2023-06-24T08:12:34.071Z,98.40
2023-06-24T08:15:01.038Z,97.90
2023-06-24T08:17:28.152Z,96.90
2023-06-24T08:19:55.233Z,95.20
2023-06-24T08:22:22.269Z,93.40
2023-06-24T08:24:49.436Z,91.60
2023-06-24T08:27:16.388Z,92.10
2023-06-24T08:29:43.311Z,90.60
2023-06-24T08:32:10.748Z,91.10
2023-06-24T08:34:37.870Z,91.20
2023-06-24T08:37:05.276Z,89.50
2023-06-24T08:39:32.230Z,89.00
2023-06-24T08:41:59.286Z,87.20
2023-06-24T08:44:26.244Z,87.50
2023-06-24T08:46:53.717Z,85.90
2023-06-24T08:49:27.353Z,85.20
2023-06-24T08:52:03.341Z,85.30
2023-06-24T08:54:32.293Z,83.90
2023-06-24T08:56:59.436Z,82.20
2023-06-24T08:59:27.717Z,80.90
2023-06-24T09:01:54.798Z,77.80
2023-06-24T09:04:21.869Z,78.20
2023-06-24T09:06:49.903Z,76.40
2023-06-24T09:09:21.319Z,77.20
2023-06-24T09:11:58.202Z,73.50
2023-06-24T09:14:31.067Z,73.70
2023-06-24T09:17:08.022Z,73.70
2023-06-24T09:19:37.596Z,72.40
2023-06-24T09:22:09.116Z,74.40
2023-06-24T09:24:37.409Z,74.40
2023-06-24T09:27:05.427Z,72.00
2023-06-24T09:29:36.639Z,70.70
2023-06-24T09:32:07.269Z,71.40
2023-06-24T09:34:34.248Z,71.20
2023-06-24T09:37:01.376Z,72.80
2023-06-24T09:39:32.673Z,70.20
2023-06-24T09:42:01.744Z,69.40
2023-06-24T09:44:29.673Z,67.50
2023-06-24T09:46:57.535Z,68.70
2023-06-24T09:49:24.965Z,66.80
2023-06-24T09:52:01.526Z,65.10
2023-06-24T09:54:33.765Z,68.50
2023-06-24T09:57:04.757Z,66.50
2023-06-24T09:59:34.735Z,67.40
2023-06-24T10:02:04.750Z,64.70
2023-06-24T10:04:33.673Z,64.30
2023-06-24T10:07:01.206Z,62.70
2023-06-24T10:09:28.171Z,64.90
2023-06-24T10:11:55.228Z,62.70
2023-06-24T10:14:22.305Z,62.40
2023-06-24T10:16:50.566Z,62.00
2023-06-24T10:19:23.414Z,60.40
2023-06-24T10:22:00.950Z,60.20
2023-06-24T10:24:32.552Z,61.40
2023-06-24T10:27:10.593Z,59.60
2023-06-24T10:29:38.807Z,59.70
2023-06-24T10:32:10.026Z,59.00
2023-06-24T10:34:43.548Z,58.00
2023-06-24T10:37:21.611Z,56.80
2023-06-24T10:39:59.486Z,57.10
2023-06-24T10:42:48.007Z,58.10
2023-06-24T10:45:17.747Z,56.00
2023-06-24T10:47:49.796Z,56.20
2023-06-24T10:50:20.044Z,56.60
2023-06-24T10:52:56.478Z,56.70
2023-06-24T10:55:28.623Z,57.80
2023-06-24T10:57:55.780Z,57.10
2023-06-24T11:00:23.849Z,55.70
2023-06-24T11:02:51.086Z,55.00
2023-06-24T11:05:18.136Z,56.40
2023-06-24T11:07:47.167Z,56.60
2023-06-24T11:10:17.253Z,56.40
2023-06-24T11:12:45.073Z,57.20
2023-06-24T11:15:14.316Z,58.40
2023-06-24T11:17:42.737Z,58.10
2023-06-24T11:20:15.160Z,56.90
2023-06-24T11:22:43.776Z,58.10
2023-06-24T11:25:23.049Z,59.50
2023-06-24T11:27:55.724Z,58.80
2023-06-24T11:30:22.832Z,59.00
2023-06-24T11:32:51.227Z,59.80
2023-06-24T11:35:18.432Z,60.60
2023-06-24T11:37:47.452Z,61.00
2023-06-24T11:40:17.665Z,61.40
2023-06-24T11:42:46.382Z,60.60
2023-06-24T11:45:16.939Z,61.00
2023-06-24T11:47:44.390Z,60.10
2023-06-24T11:50:12.533Z,61.40
2023-06-24T11:52:47.893Z,64.50
2023-06-24T11:55:18.122Z,66.60
2023-06-24T11:58:02.308Z,68.10
2023-06-24T12:00:43.981Z,68.40
2023-06-24T12:03:12.311Z,68.90
2023-06-24T12:05:46.168Z,71.60
2023-06-24T12:08:16.828Z,71.30
2023-06-24T12:10:45.626Z,72.50
2023-06-24T12:13:12.921Z,72.80
2023-06-24T12:15:39.992Z,72.10
2023-06-24T12:18:07.504Z,70.40
2023-06-24T12:20:38.146Z,71.70
2023-06-24T12:23:06.393Z,71.80
2023-06-24T12:25:33.958Z,69.80
2023-06-24T12:28:01.294Z,69.40
2023-06-24T12:30:29.192Z,69.70
2023-06-24T12:32:56.531Z,69.50
2023-06-24T12:35:26.838Z,66.70
2023-06-24T12:37:54.157Z,66.60
2023-06-24T12:40:21.338Z,66.10
2023-06-24T12:42:48.312Z,66.20
2023-06-24T12:45:15.394Z,67.90
2023-06-24T12:47:42.705Z,66.10
2023-06-24T12:50:10.370Z,64.40
2023-06-24T12:52:38.465Z,65.90
2023-06-24T12:55:08.220Z,63.00
2023-06-24T12:57:36.207Z,65.10
2023-06-24T13:00:06.713Z,64.40
2023-06-24T13:02:34.475Z,65.60
2023-06-24T13:05:01.419Z,65.80
2023-06-24T13:07:28.530Z,65.90
2023-06-24T13:09:55.595Z,65.90
2023-06-24T13:12:22.716Z,66.50
2023-06-24T13:14:49.783Z,65.80
2023-06-24T13:17:16.976Z,67.80
2023-06-24T13:19:43.894Z,67.10
2023-06-24T13:22:10.824Z,67.20
2023-06-24T13:24:37.755Z,68.00
2023-06-24T13:27:04.901Z,70.00
2023-06-24T13:29:32.850Z,70.50
2023-06-24T13:32:00.333Z,68.00
2023-06-24T13:34:27.299Z,68.90
2023-06-24T13:37:01.144Z,68.10
2023-06-24T13:39:28.828Z,67.30
2023-06-24T13:41:57.457Z,69.00
2023-06-24T13:44:24.990Z,69.00
2023-06-24T13:46:54.637Z,67.90
2023-06-24T13:49:21.968Z,68.70
2023-06-24T13:51:48.868Z,71.10
2023-06-24T13:54:15.995Z,71.90
2023-06-24T13:56:43.038Z,72.00
2023-06-24T13:59:11.748Z,71.20
2023-06-24T14:01:38.944Z,72.60
2023-06-24T14:04:06.461Z,73.90
2023-06-24T14:06:33.664Z,74.10
2023-06-24T14:09:00.707Z,76.00
2023-06-24T14:11:27.714Z,76.40
2023-06-24T14:13:56.315Z,76.50
2023-06-24T14:16:23.763Z,77.30
2023-06-24T14:18:51.047Z,78.10
2023-06-24T14:21:18.221Z,81.20
2023-06-24T14:23:45.439Z,80.10
2023-06-24T14:26:12.573Z,81.10
2023-06-24T14:28:39.611Z,80.80
2023-06-24T14:31:06.564Z,79.40
2023-06-24T14:33:33.478Z,80.20
2023-06-24T14:36:00.509Z,78.00
2023-06-24T14:38:29.386Z,75.70
2023-06-24T14:40:58.324Z,73.70
2023-06-24T14:43:25.498Z,77.10
2023-06-24T14:45:54.048Z,76.40
2023-06-24T14:48:20.992Z,77.90
2023-06-24T14:50:48.060Z,81.50
2023-06-24T14:53:15.042Z,80.00
2023-06-24T14:55:42.063Z,78.20
2023-06-24T14:58:09.162Z,78.30
2023-06-24T15:00:36.322Z,80.70
2023-06-24T15:03:03.638Z,79.00
2023-06-24T15:05:30.841Z,79.10
2023-06-24T15:07:57.783Z,78.50
2023-06-24T15:10:24.720Z,78.60
2023-06-24T15:12:51.715Z,81.00
2023-06-24T15:15:19.162Z,80.90
2023-06-24T15:17:46.588Z,81.50
2023-06-24T15:20:14.228Z,82.20
2023-06-24T15:22:42.259Z,83.40
2023-06-24T15:25:10.073Z,87.80
2023-06-24T15:27:37.214Z,90.10
2023-06-24T15:30:04.768Z,90.30
2023-06-24T15:32:31.731Z,90.60
2023-06-24T15:34:58.716Z,94.10
2023-06-24T15:37:25.815Z,94.60
2023-06-24T15:39:52.899Z,95.50
2023-06-24T15:42:19.860Z,97.00
2023-06-24T15:44:46.780Z,99.90
2023-06-24T15:47:13.698Z,99.90
2023-06-24T15:49:40.716Z,99.90
2023-06-24T15:52:07.874Z,99.90
2023-06-24T15:54:34.787Z,99.90
2023-06-24T15:57:02.063Z,99.90
2023-06-24T15:59:29.003Z,99.90
2023-06-24T16:01:55.914Z,99.90
2023-06-24T16:04:23.238Z,99.90
2023-06-24T16:06:50.228Z,99.90
2023-06-24T16:09:17.248Z,99.90
2023-06-24T16:11:44.230Z,99.90
2023-06-24T16:14:11.188Z,99.90
2023-06-24T16:16:38.320Z,99.40
2023-06-24T16:19:05.343Z,98.10
2023-06-24T16:21:34.139Z,97.20
2023-06-24T16:24:01.220Z,97.50
2023-06-24T16:26:30.550Z,97.90
2023-06-24T16:29:01.486Z,95.90
2023-06-24T16:31:28.476Z,95.80
2023-06-24T16:33:55.503Z,96.90
2023-06-24T16:36:22.463Z,95.70
2023-06-24T16:38:49.421Z,94.80
2023-06-24T16:41:16.387Z,95.10
2023-06-24T16:43:48.385Z,95.90
2023-06-24T16:46:15.647Z,94.00
2023-06-24T16:48:42.675Z,94.90
2023-06-24T16:51:09.602Z,94.10
2023-06-24T16:53:36.590Z,95.40
2023-06-24T16:56:03.636Z,97.00
2023-06-24T16:58:30.637Z,97.60
2023-06-24T17:00:57.539Z,98.50
2023-06-24T17:03:24.605Z,97.60
2023-06-24T17:05:51.606Z,98.00
2023-06-24T17:08:18.643Z,99.80
2023-06-24T17:10:45.982Z,99.60
2023-06-24T17:13:12.967Z,99.90
2023-06-24T17:15:40.126Z,99.90
2023-06-24T17:18:07.178Z,99.90
2023-06-24T17:20:34.339Z,99.90
2023-06-24T17:23:01.517Z,99.90
2023-06-24T17:25:28.509Z,99.90
2023-06-24T17:27:55.532Z,99.90
2023-06-24T17:30:22.512Z,99.90
2023-06-24T17:32:50.490Z,99.90
2023-06-24T17:35:17.548Z,99.90
2023-06-24T17:37:44.619Z,99.90
2023-06-24T17:40:11.927Z,99.90
2023-06-24T17:42:38.934Z,99.90
2023-06-24T17:45:07.013Z,99.90
2023-06-24T17:47:34.170Z,99.90
2023-06-24T17:50:01.134Z,99.90
2023-06-24T17:52:28.128Z,99.90
2023-06-24T17:54:55.099Z,99.90
2023-06-24T17:57:21.992Z,99.90
2023-06-24T17:59:48.964Z,99.90
2023-06-24T18:02:15.931Z,99.90
2023-06-24T18:04:42.880Z,99.90
2023-06-24T18:07:10.032Z,99.90
2023-06-24T18:09:37.028Z,99.90
2023-06-24T18:12:04.138Z,99.90
2023-06-24T18:14:31.105Z,99.90
2023-06-24T18:16:58.760Z,99.90
2023-06-24T18:19:25.734Z,99.90
2023-06-24T18:21:52.714Z,99.90
2023-06-24T18:24:19.785Z,99.90
2023-06-24T18:26:46.842Z,99.90
2023-06-24T18:29:13.793Z,99.90
2023-06-24T18:31:43.641Z,99.90
2023-06-24T18:34:13.752Z,99.90
2023-06-24T18:36:40.770Z,99.90
2023-06-24T18:39:07.726Z,99.90
2023-06-24T18:41:34.683Z,99.90
2023-06-24T18:44:04.190Z,99.90
2023-06-24T18:46:31.164Z,99.90
2023-06-24T18:48:58.190Z,99.90
2023-06-24T18:51:25.185Z,99.90
2023-06-24T18:53:52.135Z,99.90
2023-06-24T18:56:19.087Z,99.90
2023-06-24T18:58:46.017Z,99.90
2023-06-24T19:01:12.897Z,99.90
2023-06-24T19:03:40.376Z,99.90
2023-06-24T19:06:08.528Z,99.90
2023-06-24T19:08:35.475Z,99.90
2023-06-24T19:11:02.500Z,99.90
2023-06-24T19:13:29.534Z,99.90
2023-06-24T19:15:56.506Z,99.90
2023-06-24T19:18:23.460Z,99.90
2023-06-24T19:20:50.601Z,99.90
2023-06-24T19:23:17.574Z,99.90
2023-06-24T19:25:44.578Z,99.90
2023-06-24T19:28:11.558Z,99.90
2023-06-24T19:30:38.752Z,99.90
